sensor_id;sensor_type;location;lat;lon;timestamp;P1;durP1;ratioP1;P2;durP2;ratioP2
12042;SDS011;6082;49.306;12.862;2022-11-14T00:01:08;34.27;;;15.73;;
12042;SDS011;6082;49.306;12.862;2022-11-14T00:03:34;28.10;;;15.60;;
12042;SDS011;6082;49.306;12.862;2022-11-14T00:06:03;32.17;;;15.70;;
12042;SDS011;6082;49.306;12.862;2022-11-14T00:08:30;28.23;;;15.30;;
12042;SDS011;6082;49.306;12.862;2022-11-14T00:10:56;29.47;;;15.83;;
12042;SDS011;6082;49.306;12.862;2022-11-14T00:13:22;29.20;;;16.07;;
12042;SDS011;6082;49.306;12.862;2022-11-14T00:15:49;31.43;;;14.57;;
12042;SDS011;6082;49.306;12.862;2022-11-14T00:18:17;30.60;;;14.63;;
12042;SDS011;6082;49.306;12.862;2022-11-14T00:20:43;31.53;;;15.20;;
12042;SDS011;6082;49.306;12.862;2022-11-14T00:23:11;29.73;;;13.90;;
12042;SDS011;6082;49.306;12.862;2022-11-14T00:25:38;29.13;;;14.83;;
12042;SDS011;6082;49.306;12.862;2022-11-14T00:28:04;28.97;;;14.83;;
12042;SDS011;6082;49.306;12.862;2022-11-14T00:30:30;39.63;;;17.07;;
12042;SDS011;6082;49.306;12.862;2022-11-14T00:32:56;31.70;;;14.73;;
12042;SDS011;6082;49.306;12.862;2022-11-14T00:35:22;28.90;;;13.57;;
12042;SDS011;6082;49.306;12.862;2022-11-14T00:37:48;28.67;;;15.17;;
12042;SDS011;6082;49.306;12.862;2022-11-14T00:40:15;30.67;;;14.50;;
12042;SDS011;6082;49.306;12.862;2022-11-14T00:42:41;30.03;;;15.27;;
12042;SDS011;6082;49.306;12.862;2022-11-14T00:45:07;32.57;;;15.50;;
12042;SDS011;6082;49.306;12.862;2022-11-14T00:47:33;32.07;;;15.63;;
12042;SDS011;6082;49.306;12.862;2022-11-14T00:50:00;31.80;;;14.53;;
12042;SDS011;6082;49.306;12.862;2022-11-14T00:52:26;32.00;;;15.57;;
12042;SDS011;6082;49.306;12.862;2022-11-14T00:54:52;25.50;;;14.23;;
12042;SDS011;6082;49.306;12.862;2022-11-14T00:57:18;31.87;;;15.50;;
12042;SDS011;6082;49.306;12.862;2022-11-14T00:59:44;25.43;;;13.60;;
12042;SDS011;6082;49.306;12.862;2022-11-14T01:02:10;29.20;;;14.03;;
12042;SDS011;6082;49.306;12.862;2022-11-14T01:04:36;31.63;;;14.80;;
12042;SDS011;6082;49.306;12.862;2022-11-14T01:07:02;28.63;;;14.63;;
12042;SDS011;6082;49.306;12.862;2022-11-14T01:09:28;26.27;;;13.27;;
12042;SDS011;6082;49.306;12.862;2022-11-14T01:11:54;28.60;;;14.90;;
12042;SDS011;6082;49.306;12.862;2022-11-14T01:14:20;28.00;;;14.23;;
12042;SDS011;6082;49.306;12.862;2022-11-14T01:16:46;26.90;;;14.80;;
12042;SDS011;6082;49.306;12.862;2022-11-14T01:19:12;31.07;;;14.57;;
12042;SDS011;6082;49.306;12.862;2022-11-14T01:21:38;26.70;;;13.67;;
12042;SDS011;6082;49.306;12.862;2022-11-14T01:24:04;27.03;;;13.10;;
12042;SDS011;6082;49.306;12.862;2022-11-14T01:26:31;26.93;;;14.63;;
12042;SDS011;6082;49.306;12.862;2022-11-14T01:28:57;29.50;;;14.43;;
12042;SDS011;6082;49.306;12.862;2022-11-14T01:31:23;32.80;;;13.93;;
12042;SDS011;6082;49.306;12.862;2022-11-14T01:33:50;27.50;;;14.43;;
12042;SDS011;6082;49.306;12.862;2022-11-14T01:36:17;19.50;;;11.77;;
12042;SDS011;6082;49.306;12.862;2022-11-14T01:38:50;24.13;;;12.40;;
12042;SDS011;6082;49.306;12.862;2022-11-14T01:41:17;25.07;;;12.27;;
12042;SDS011;6082;49.306;12.862;2022-11-14T01:43:43;26.80;;;13.10;;
12042;SDS011;6082;49.306;12.862;2022-11-14T01:46:20;24.80;;;13.27;;
12042;SDS011;6082;49.306;12.862;2022-11-14T01:48:55;33.60;;;13.80;;
12042;SDS011;6082;49.306;12.862;2022-11-14T01:53:49;28.80;;;14.10;;
12042;SDS011;6082;49.306;12.862;2022-11-14T01:56:17;30.20;;;13.60;;
12042;SDS011;6082;49.306;12.862;2022-11-14T01:58:45;27.90;;;14.27;;
12042;SDS011;6082;49.306;12.862;2022-11-14T02:01:12;30.63;;;13.47;;
12042;SDS011;6082;49.306;12.862;2022-11-14T02:03:39;29.50;;;14.03;;
12042;SDS011;6082;49.306;12.862;2022-11-14T02:06:06;29.80;;;13.33;;
12042;SDS011;6082;49.306;12.862;2022-11-14T02:08:34;24.73;;;13.20;;
12042;SDS011;6082;49.306;12.862;2022-11-14T02:11:00;28.87;;;13.53;;
12042;SDS011;6082;49.306;12.862;2022-11-14T02:13:26;27.23;;;13.93;;
12042;SDS011;6082;49.306;12.862;2022-11-14T02:15:52;26.97;;;14.10;;
12042;SDS011;6082;49.306;12.862;2022-11-14T02:18:18;23.87;;;13.30;;
12042;SDS011;6082;49.306;12.862;2022-11-14T02:20:44;30.60;;;14.47;;
12042;SDS011;6082;49.306;12.862;2022-11-14T02:23:11;24.57;;;13.37;;
12042;SDS011;6082;49.306;12.862;2022-11-14T02:25:37;29.50;;;14.03;;
12042;SDS011;6082;49.306;12.862;2022-11-14T02:28:04;27.00;;;12.60;;
12042;SDS011;6082;49.306;12.862;2022-11-14T02:30:32;26.87;;;12.73;;
12042;SDS011;6082;49.306;12.862;2022-11-14T02:32:58;26.53;;;13.50;;
12042;SDS011;6082;49.306;12.862;2022-11-14T02:35:24;26.60;;;13.63;;
12042;SDS011;6082;49.306;12.862;2022-11-14T02:37:50;27.47;;;12.63;;
12042;SDS011;6082;49.306;12.862;2022-11-14T02:40:16;30.37;;;13.00;;
12042;SDS011;6082;49.306;12.862;2022-11-14T02:42:42;23.33;;;12.63;;
12042;SDS011;6082;49.306;12.862;2022-11-14T02:45:09;24.67;;;13.20;;
12042;SDS011;6082;49.306;12.862;2022-11-14T02:47:37;26.90;;;12.50;;
12042;SDS011;6082;49.306;12.862;2022-11-14T02:50:03;27.03;;;13.20;;
12042;SDS011;6082;49.306;12.862;2022-11-14T02:52:29;23.50;;;12.53;;
12042;SDS011;6082;49.306;12.862;2022-11-14T02:54:55;25.47;;;12.63;;
12042;SDS011;6082;49.306;12.862;2022-11-14T02:57:21;23.17;;;12.80;;
12042;SDS011;6082;49.306;12.862;2022-11-14T02:59:47;18.73;;;10.67;;
12042;SDS011;6082;49.306;12.862;2022-11-14T03:02:13;23.03;;;12.00;;
12042;SDS011;6082;49.306;12.862;2022-11-14T03:04:39;24.03;;;11.67;;
12042;SDS011;6082;49.306;12.862;2022-11-14T03:07:05;25.27;;;12.50;;
12042;SDS011;6082;49.306;12.862;2022-11-14T03:09:31;21.83;;;11.27;;
12042;SDS011;6082;49.306;12.862;2022-11-14T03:11:57;19.70;;;11.13;;
12042;SDS011;6082;49.306;12.862;2022-11-14T03:14:23;22.97;;;10.90;;
12042;SDS011;6082;49.306;12.862;2022-11-14T03:16:49;25.27;;;11.50;;
12042;SDS011;6082;49.306;12.862;2022-11-14T03:19:15;21.77;;;11.13;;
12042;SDS011;6082;49.306;12.862;2022-11-14T03:21:42;23.77;;;11.57;;
12042;SDS011;6082;49.306;12.862;2022-11-14T03:24:08;26.47;;;12.40;;
12042;SDS011;6082;49.306;12.862;2022-11-14T03:26:34;20.13;;;11.20;;
12042;SDS011;6082;49.306;12.862;2022-11-14T03:29:00;23.27;;;11.77;;
12042;SDS011;6082;49.306;12.862;2022-11-14T03:31:26;26.27;;;13.00;;
12042;SDS011;6082;49.306;12.862;2022-11-14T03:33:52;21.73;;;11.27;;
12042;SDS011;6082;49.306;12.862;2022-11-14T03:36:18;21.47;;;10.80;;
12042;SDS011;6082;49.306;12.862;2022-11-14T03:38:44;23.27;;;10.83;;
12042;SDS011;6082;49.306;12.862;2022-11-14T03:41:10;23.27;;;11.77;;
12042;SDS011;6082;49.306;12.862;2022-11-14T03:43:36;22.77;;;11.70;;
12042;SDS011;6082;49.306;12.862;2022-11-14T03:46:02;24.00;;;11.60;;
12042;SDS011;6082;49.306;12.862;2022-11-14T03:48:28;21.47;;;12.27;;
12042;SDS011;6082;49.306;12.862;2022-11-14T03:50:54;24.63;;;12.40;;
12042;SDS011;6082;49.306;12.862;2022-11-14T03:53:21;19.70;;;10.40;;
12042;SDS011;6082;49.306;12.862;2022-11-14T03:55:47;19.87;;;11.43;;
12042;SDS011;6082;49.306;12.862;2022-11-14T03:58:13;23.30;;;10.87;;
12042;SDS011;6082;49.306;12.862;2022-11-14T04:00:39;23.73;;;11.97;;
12042;SDS011;6082;49.306;12.862;2022-11-14T04:03:05;21.07;;;11.23;;
12042;SDS011;6082;49.306;12.862;2022-11-14T04:05:31;20.53;;;11.07;;
12042;SDS011;6082;49.306;12.862;2022-11-14T04:07:57;25.57;;;12.20;;
12042;SDS011;6082;49.306;12.862;2022-11-14T04:10:23;21.30;;;10.87;;
12042;SDS011;6082;49.306;12.862;2022-11-14T04:12:50;22.87;;;10.80;;
12042;SDS011;6082;49.306;12.862;2022-11-14T04:15:17;22.50;;;11.03;;
12042;SDS011;6082;49.306;12.862;2022-11-14T04:17:43;24.20;;;12.30;;
12042;SDS011;6082;49.306;12.862;2022-11-14T04:20:09;24.23;;;11.37;;
12042;SDS011;6082;49.306;12.862;2022-11-14T04:22:35;22.57;;;11.57;;
12042;SDS011;6082;49.306;12.862;2022-11-14T04:25:02;26.20;;;10.83;;
12042;SDS011;6082;49.306;12.862;2022-11-14T04:27:28;23.77;;;11.17;;
12042;SDS011;6082;49.306;12.862;2022-11-14T04:29:54;20.20;;;10.87;;
12042;SDS011;6082;49.306;12.862;2022-11-14T04:32:20;24.43;;;12.07;;
12042;SDS011;6082;49.306;12.862;2022-11-14T04:34:46;23.37;;;11.53;;
12042;SDS011;6082;49.306;12.862;2022-11-14T04:37:12;21.00;;;11.03;;
12042;SDS011;6082;49.306;12.862;2022-11-14T04:39:38;21.20;;;11.03;;
12042;SDS011;6082;49.306;12.862;2022-11-14T04:42:04;23.23;;;11.13;;
12042;SDS011;6082;49.306;12.862;2022-11-14T04:44:30;20.93;;;10.90;;
12042;SDS011;6082;49.306;12.862;2022-11-14T04:46:56;22.73;;;12.13;;
12042;SDS011;6082;49.306;12.862;2022-11-14T04:49:22;25.53;;;12.93;;
12042;SDS011;6082;49.306;12.862;2022-11-14T04:51:49;20.10;;;11.20;;
12042;SDS011;6082;49.306;12.862;2022-11-14T04:54:15;17.60;;;10.03;;
12042;SDS011;6082;49.306;12.862;2022-11-14T04:56:41;23.63;;;11.47;;
12042;SDS011;6082;49.306;12.862;2022-11-14T04:59:07;21.47;;;10.30;;
12042;SDS011;6082;49.306;12.862;2022-11-14T05:01:33;26.73;;;10.80;;
12042;SDS011;6082;49.306;12.862;2022-11-14T05:03:59;21.33;;;10.33;;
12042;SDS011;6082;49.306;12.862;2022-11-14T05:06:25;20.57;;;10.40;;
12042;SDS011;6082;49.306;12.862;2022-11-14T05:08:51;20.50;;;11.00;;
12042;SDS011;6082;49.306;12.862;2022-11-14T05:11:18;19.27;;;11.23;;
12042;SDS011;6082;49.306;12.862;2022-11-14T05:13:44;25.83;;;11.30;;
12042;SDS011;6082;49.306;12.862;2022-11-14T05:16:10;20.77;;;10.23;;
12042;SDS011;6082;49.306;12.862;2022-11-14T05:18:37;20.53;;;10.03;;
12042;SDS011;6082;49.306;12.862;2022-11-14T05:21:03;19.07;;;10.70;;
12042;SDS011;6082;49.306;12.862;2022-11-14T05:23:29;19.37;;;9.27;;
12042;SDS011;6082;49.306;12.862;2022-11-14T05:28:24;20.37;;;10.40;;
12042;SDS011;6082;49.306;12.862;2022-11-14T05:30:50;18.87;;;9.93;;
12042;SDS011;6082;49.306;12.862;2022-11-14T05:33:16;19.13;;;10.27;;
12042;SDS011;6082;49.306;12.862;2022-11-14T05:35:42;20.30;;;11.40;;
12042;SDS011;6082;49.306;12.862;2022-11-14T05:38:08;18.03;;;10.67;;
12042;SDS011;6082;49.306;12.862;2022-11-14T05:40:35;20.90;;;10.47;;
12042;SDS011;6082;49.306;12.862;2022-11-14T05:43:02;20.20;;;11.07;;
12042;SDS011;6082;49.306;12.862;2022-11-14T05:45:29;19.90;;;10.50;;
12042;SDS011;6082;49.306;12.862;2022-11-14T05:47:55;22.70;;;10.43;;
12042;SDS011;6082;49.306;12.862;2022-11-14T05:50:21;17.97;;;9.63;;
12042;SDS011;6082;49.306;12.862;2022-11-14T05:52:47;17.50;;;9.97;;
12042;SDS011;6082;49.306;12.862;2022-11-14T05:55:13;22.33;;;10.63;;
12042;SDS011;6082;49.306;12.862;2022-11-14T05:57:39;19.80;;;10.13;;
12042;SDS011;6082;49.306;12.862;2022-11-14T06:00:05;23.10;;;10.30;;
12042;SDS011;6082;49.306;12.862;2022-11-14T06:02:33;21.90;;;10.50;;
12042;SDS011;6082;49.306;12.862;2022-11-14T06:04:59;20.53;;;10.20;;
12042;SDS011;6082;49.306;12.862;2022-11-14T06:07:25;21.17;;;10.20;;
12042;SDS011;6082;49.306;12.862;2022-11-14T06:09:51;17.57;;;10.23;;
12042;SDS011;6082;49.306;12.862;2022-11-14T06:12:17;21.20;;;11.07;;
12042;SDS011;6082;49.306;12.862;2022-11-14T06:14:43;22.27;;;10.30;;
12042;SDS011;6082;49.306;12.862;2022-11-14T06:17:09;23.87;;;10.70;;
12042;SDS011;6082;49.306;12.862;2022-11-14T06:19:35;22.97;;;11.63;;
12042;SDS011;6082;49.306;12.862;2022-11-14T06:22:01;18.87;;;9.37;;
12042;SDS011;6082;49.306;12.862;2022-11-14T06:24:27;18.23;;;10.00;;
12042;SDS011;6082;49.306;12.862;2022-11-14T06:26:53;19.30;;;10.03;;
12042;SDS011;6082;49.306;12.862;2022-11-14T06:29:19;19.73;;;10.83;;
12042;SDS011;6082;49.306;12.862;2022-11-14T06:31:45;20.47;;;10.00;;
12042;SDS011;6082;49.306;12.862;2022-11-14T06:34:11;20.80;;;10.53;;
12042;SDS011;6082;49.306;12.862;2022-11-14T06:36:37;20.93;;;11.70;;
12042;SDS011;6082;49.306;12.862;2022-11-14T06:39:03;25.80;;;11.33;;
12042;SDS011;6082;49.306;12.862;2022-11-14T06:41:29;23.00;;;11.07;;
12042;SDS011;6082;49.306;12.862;2022-11-14T06:43:55;20.10;;;10.33;;
12042;SDS011;6082;49.306;12.862;2022-11-14T06:46:22;23.30;;;10.63;;
12042;SDS011;6082;49.306;12.862;2022-11-14T06:48:48;22.67;;;12.03;;
12042;SDS011;6082;49.306;12.862;2022-11-14T06:51:16;24.63;;;11.33;;
12042;SDS011;6082;49.306;12.862;2022-11-14T06:53:42;23.13;;;11.70;;
12042;SDS011;6082;49.306;12.862;2022-11-14T06:56:13;22.53;;;11.53;;
12042;SDS011;6082;49.306;12.862;2022-11-14T06:58:40;21.33;;;11.27;;
12042;SDS011;6082;49.306;12.862;2022-11-14T07:01:07;20.77;;;10.63;;
12042;SDS011;6082;49.306;12.862;2022-11-14T07:03:35;21.90;;;10.60;;
12042;SDS011;6082;49.306;12.862;2022-11-14T07:06:01;21.03;;;10.67;;
12042;SDS011;6082;49.306;12.862;2022-11-14T07:08:28;18.00;;;10.80;;
12042;SDS011;6082;49.306;12.862;2022-11-14T07:10:59;22.80;;;12.03;;
12042;SDS011;6082;49.306;12.862;2022-11-14T07:13:25;19.20;;;10.03;;
12042;SDS011;6082;49.306;12.862;2022-11-14T07:15:51;20.33;;;9.73;;
12042;SDS011;6082;49.306;12.862;2022-11-14T07:18:18;18.93;;;9.87;;
12042;SDS011;6082;49.306;12.862;2022-11-14T07:20:45;20.03;;;11.43;;
12042;SDS011;6082;49.306;12.862;2022-11-14T07:23:11;21.93;;;10.13;;
12042;SDS011;6082;49.306;12.862;2022-11-14T07:25:37;24.17;;;10.20;;
12042;SDS011;6082;49.306;12.862;2022-11-14T07:28:03;23.03;;;9.87;;
12042;SDS011;6082;49.306;12.862;2022-11-14T07:30:29;20.73;;;10.23;;
12042;SDS011;6082;49.306;12.862;2022-11-14T07:32:56;20.13;;;11.13;;
12042;SDS011;6082;49.306;12.862;2022-11-14T07:35:22;21.30;;;9.43;;
12042;SDS011;6082;49.306;12.862;2022-11-14T07:37:48;18.50;;;9.43;;
12042;SDS011;6082;49.306;12.862;2022-11-14T07:40:15;20.77;;;11.03;;
12042;SDS011;6082;49.306;12.862;2022-11-14T07:42:41;21.00;;;10.60;;
12042;SDS011;6082;49.306;12.862;2022-11-14T07:45:07;18.97;;;10.07;;
12042;SDS011;6082;49.306;12.862;2022-11-14T07:47:34;22.97;;;10.87;;
12042;SDS011;6082;49.306;12.862;2022-11-14T07:50:00;21.07;;;10.13;;
12042;SDS011;6082;49.306;12.862;2022-11-14T07:52:26;22.17;;;10.47;;
12042;SDS011;6082;49.306;12.862;2022-11-14T07:54:52;18.40;;;9.07;;
12042;SDS011;6082;49.306;12.862;2022-11-14T07:57:18;21.37;;;10.37;;
12042;SDS011;6082;49.306;12.862;2022-11-14T07:59:44;19.87;;;10.37;;
12042;SDS011;6082;49.306;12.862;2022-11-14T08:02:13;19.93;;;9.77;;
12042;SDS011;6082;49.306;12.862;2022-11-14T08:04:40;20.37;;;10.77;;
12042;SDS011;6082;49.306;12.862;2022-11-14T08:07:06;19.37;;;10.20;;
12042;SDS011;6082;49.306;12.862;2022-11-14T08:09:32;19.83;;;9.87;;
12042;SDS011;6082;49.306;12.862;2022-11-14T08:11:58;19.53;;;9.20;;
12042;SDS011;6082;49.306;12.862;2022-11-14T08:14:24;22.93;;;9.80;;
12042;SDS011;6082;49.306;12.862;2022-11-14T08:16:50;19.20;;;10.57;;
12042;SDS011;6082;49.306;12.862;2022-11-14T08:19:16;18.87;;;9.30;;
12042;SDS011;6082;49.306;12.862;2022-11-14T08:21:43;18.47;;;8.97;;
12042;SDS011;6082;49.306;12.862;2022-11-14T08:24:09;17.70;;;9.27;;
12042;SDS011;6082;49.306;12.862;2022-11-14T08:26:35;21.23;;;9.47;;
12042;SDS011;6082;49.306;12.862;2022-11-14T08:29:01;20.30;;;9.03;;
12042;SDS011;6082;49.306;12.862;2022-11-14T08:31:27;20.87;;;10.00;;
12042;SDS011;6082;49.306;12.862;2022-11-14T08:33:53;18.30;;;10.10;;
12042;SDS011;6082;49.306;12.862;2022-11-14T08:36:19;19.73;;;9.50;;
12042;SDS011;6082;49.306;12.862;2022-11-14T08:38:45;19.83;;;10.10;;
12042;SDS011;6082;49.306;12.862;2022-11-14T08:41:11;23.13;;;10.03;;
12042;SDS011;6082;49.306;12.862;2022-11-14T08:43:37;18.83;;;9.03;;
12042;SDS011;6082;49.306;12.862;2022-11-14T08:46:03;17.23;;;9.67;;
12042;SDS011;6082;49.306;12.862;2022-11-14T08:48:29;18.80;;;9.23;;
12042;SDS011;6082;49.306;12.862;2022-11-14T08:50:56;22.30;;;9.87;;
12042;SDS011;6082;49.306;12.862;2022-11-14T08:53:22;17.83;;;9.47;;
12042;SDS011;6082;49.306;12.862;2022-11-14T08:55:48;20.07;;;9.87;;
12042;SDS011;6082;49.306;12.862;2022-11-14T08:58:14;21.27;;;11.03;;
12042;SDS011;6082;49.306;12.862;2022-11-14T09:00:40;18.47;;;9.77;;
12042;SDS011;6082;49.306;12.862;2022-11-14T09:03:07;22.73;;;10.97;;
12042;SDS011;6082;49.306;12.862;2022-11-14T09:05:33;24.97;;;10.60;;
12042;SDS011;6082;49.306;12.862;2022-11-14T09:07:59;18.93;;;10.83;;
12042;SDS011;6082;49.306;12.862;2022-11-14T09:10:25;20.30;;;10.53;;
12042;SDS011;6082;49.306;12.862;2022-11-14T09:12:55;15.03;;;9.33;;
12042;SDS011;6082;49.306;12.862;2022-11-14T09:15:21;19.47;;;9.97;;
12042;SDS011;6082;49.306;12.862;2022-11-14T09:17:47;18.50;;;9.17;;
12042;SDS011;6082;49.306;12.862;2022-11-14T09:20:13;18.90;;;10.30;;
12042;SDS011;6082;49.306;12.862;2022-11-14T09:22:39;19.60;;;9.83;;
12042;SDS011;6082;49.306;12.862;2022-11-14T09:25:06;18.60;;;9.03;;
12042;SDS011;6082;49.306;12.862;2022-11-14T09:27:32;19.20;;;9.57;;
12042;SDS011;6082;49.306;12.862;2022-11-14T09:29:58;17.13;;;8.43;;
12042;SDS011;6082;49.306;12.862;2022-11-14T09:32:24;20.90;;;10.17;;
12042;SDS011;6082;49.306;12.862;2022-11-14T09:34:50;19.77;;;10.40;;
12042;SDS011;6082;49.306;12.862;2022-11-14T09:37:17;17.57;;;8.63;;
12042;SDS011;6082;49.306;12.862;2022-11-14T09:39:43;18.60;;;9.93;;
12042;SDS011;6082;49.306;12.862;2022-11-14T09:47:17;22.40;;;9.57;;
12042;SDS011;6082;49.306;12.862;2022-11-14T09:49:45;19.63;;;9.77;;
12042;SDS011;6082;49.306;12.862;2022-11-14T09:52:20;15.80;;;8.80;;
12042;SDS011;6082;49.306;12.862;2022-11-14T09:54:55;18.60;;;10.23;;
12042;SDS011;6082;49.306;12.862;2022-11-14T09:57:21;16.13;;;8.80;;
12042;SDS011;6082;49.306;12.862;2022-11-14T09:59:48;17.30;;;8.90;;
12042;SDS011;6082;49.306;12.862;2022-11-14T10:07:38;18.13;;;9.80;;
12042;SDS011;6082;49.306;12.862;2022-11-14T10:12:59;17.30;;;8.50;;
12042;SDS011;6082;49.306;12.862;2022-11-14T10:20:47;16.10;;;8.77;;
12042;SDS011;6082;49.306;12.862;2022-11-14T10:23:28;20.80;;;10.63;;
12042;SDS011;6082;49.306;12.862;2022-11-14T10:31:15;17.80;;;9.63;;
12042;SDS011;6082;49.306;12.862;2022-11-14T10:41:24;20.63;;;10.13;;
12042;SDS011;6082;49.306;12.862;2022-11-14T10:43:52;18.20;;;9.83;;
12042;SDS011;6082;49.306;12.862;2022-11-14T10:46:24;17.80;;;8.80;;
12042;SDS011;6082;49.306;12.862;2022-11-14T10:48:51;17.87;;;9.33;;
12042;SDS011;6082;49.306;12.862;2022-11-14T10:53:54;21.10;;;10.93;;
12042;SDS011;6082;49.306;12.862;2022-11-14T10:56:20;17.80;;;9.97;;
12042;SDS011;6082;49.306;12.862;2022-11-14T10:58:47;20.47;;;10.80;;
12042;SDS011;6082;49.306;12.862;2022-11-14T11:04:13;21.43;;;10.50;;
12042;SDS011;6082;49.306;12.862;2022-11-14T11:06:40;19.40;;;10.03;;
12042;SDS011;6082;49.306;12.862;2022-11-14T11:09:06;19.67;;;10.40;;
12042;SDS011;6082;49.306;12.862;2022-11-14T11:11:59;20.27;;;10.53;;
12042;SDS011;6082;49.306;12.862;2022-11-14T11:14:26;18.80;;;10.07;;
12042;SDS011;6082;49.306;12.862;2022-11-14T11:19:40;18.33;;;10.27;;
12042;SDS011;6082;49.306;12.862;2022-11-14T11:24:51;21.50;;;10.67;;
12042;SDS011;6082;49.306;12.862;2022-11-14T11:30:15;21.20;;;10.67;;
12042;SDS011;6082;49.306;12.862;2022-11-14T11:32:33;20.63;;;11.23;;
12042;SDS011;6082;49.306;12.862;2022-11-14T11:35:00;21.10;;;10.97;;
12042;SDS011;6082;49.306;12.862;2022-11-14T11:40:14;21.60;;;10.30;;
12042;SDS011;6082;49.306;12.862;2022-11-14T11:42:53;20.20;;;11.00;;
12042;SDS011;6082;49.306;12.862;2022-11-14T11:45:22;17.83;;;10.33;;
12042;SDS011;6082;49.306;12.862;2022-11-14T11:47:59;16.57;;;10.03;;
12042;SDS011;6082;49.306;12.862;2022-11-14T11:50:26;19.13;;;10.67;;
12042;SDS011;6082;49.306;12.862;2022-11-14T11:55:36;17.37;;;9.33;;
12042;SDS011;6082;49.306;12.862;2022-11-14T11:58:08;17.10;;;9.40;;
12042;SDS011;6082;49.306;12.862;2022-11-14T12:00:36;23.57;;;11.43;;
12042;SDS011;6082;49.306;12.862;2022-11-14T12:03:03;21.90;;;11.60;;
12042;SDS011;6082;49.306;12.862;2022-11-14T12:05:37;20.57;;;11.03;;
12042;SDS011;6082;49.306;12.862;2022-11-14T12:08:26;22.97;;;11.87;;
12042;SDS011;6082;49.306;12.862;2022-11-14T12:10:55;18.33;;;9.97;;
12042;SDS011;6082;49.306;12.862;2022-11-14T12:26:19;16.83;;;10.00;;
12042;SDS011;6082;49.306;12.862;2022-11-14T12:28:59;20.93;;;10.87;;
12042;SDS011;6082;49.306;12.862;2022-11-14T12:31:33;24.23;;;11.83;;
12042;SDS011;6082;49.306;12.862;2022-11-14T12:34:01;22.37;;;11.90;;
12042;SDS011;6082;49.306;12.862;2022-11-14T12:36:30;21.67;;;11.27;;
12042;SDS011;6082;49.306;12.862;2022-11-14T12:38:56;18.63;;;10.97;;
12042;SDS011;6082;49.306;12.862;2022-11-14T12:41:33;20.33;;;12.10;;
12042;SDS011;6082;49.306;12.862;2022-11-14T12:49:38;19.73;;;11.23;;
12042;SDS011;6082;49.306;12.862;2022-11-14T13:00:12;20.90;;;11.47;;
12042;SDS011;6082;49.306;12.862;2022-11-14T13:05:36;18.77;;;10.47;;
12042;SDS011;6082;49.306;12.862;2022-11-14T13:08:18;18.80;;;9.93;;
12042;SDS011;6082;49.306;12.862;2022-11-14T13:10:46;16.73;;;10.40;;
12042;SDS011;6082;49.306;12.862;2022-11-14T13:13:13;17.90;;;10.93;;
12042;SDS011;6082;49.306;12.862;2022-11-14T13:15:59;20.30;;;10.30;;
12042;SDS011;6082;49.306;12.862;2022-11-14T13:21:38;18.07;;;10.30;;
12042;SDS011;6082;49.306;12.862;2022-11-14T13:24:24;17.83;;;10.13;;
12042;SDS011;6082;49.306;12.862;2022-11-14T13:26:51;17.40;;;9.97;;
12042;SDS011;6082;49.306;12.862;2022-11-14T13:32:12;18.00;;;10.20;;
12042;SDS011;6082;49.306;12.862;2022-11-14T13:35:01;20.40;;;11.17;;
12042;SDS011;6082;49.306;12.862;2022-11-14T13:45:39;19.67;;;10.37;;
12042;SDS011;6082;49.306;12.862;2022-11-14T13:50:41;18.93;;;9.97;;
12042;SDS011;6082;49.306;12.862;2022-11-14T13:53:12;17.43;;;10.33;;
12042;SDS011;6082;49.306;12.862;2022-11-14T14:03:41;18.57;;;10.60;;
12042;SDS011;6082;49.306;12.862;2022-11-14T14:11:44;17.43;;;10.27;;
12042;SDS011;6082;49.306;12.862;2022-11-14T14:16:58;17.50;;;10.10;;
12042;SDS011;6082;49.306;12.862;2022-11-14T14:22:00;17.00;;;9.87;;
12042;SDS011;6082;49.306;12.862;2022-11-14T14:29:39;20.13;;;11.47;;
12042;SDS011;6082;49.306;12.862;2022-11-14T14:32:09;22.47;;;11.83;;
12042;SDS011;6082;49.306;12.862;2022-11-14T14:34:37;20.13;;;12.10;;
12042;SDS011;6082;49.306;12.862;2022-11-14T14:37:13;18.77;;;11.37;;
12042;SDS011;6082;49.306;12.862;2022-11-14T14:39:40;17.83;;;11.23;;
12042;SDS011;6082;49.306;12.862;2022-11-14T14:42:19;17.93;;;11.23;;
12042;SDS011;6082;49.306;12.862;2022-11-14T14:44:46;16.60;;;10.63;;
12042;SDS011;6082;49.306;12.862;2022-11-14T14:49:54;18.20;;;11.30;;
12042;SDS011;6082;49.306;12.862;2022-11-14T14:52:30;20.50;;;10.13;;
12042;SDS011;6082;49.306;12.862;2022-11-14T14:54:57;20.60;;;10.83;;
12042;SDS011;6082;49.306;12.862;2022-11-14T14:57:26;19.97;;;10.87;;
12042;SDS011;6082;49.306;12.862;2022-11-14T15:00:03;17.77;;;10.17;;
12042;SDS011;6082;49.306;12.862;2022-11-14T15:02:31;21.70;;;11.63;;
12042;SDS011;6082;49.306;12.862;2022-11-14T15:04:57;20.80;;;10.43;;
12042;SDS011;6082;49.306;12.862;2022-11-14T15:07:24;19.67;;;11.30;;
12042;SDS011;6082;49.306;12.862;2022-11-14T15:10:00;20.57;;;10.30;;
12042;SDS011;6082;49.306;12.862;2022-11-14T15:12:27;21.17;;;11.87;;
12042;SDS011;6082;49.306;12.862;2022-11-14T15:14:54;19.17;;;11.03;;
12042;SDS011;6082;49.306;12.862;2022-11-14T15:17:21;18.73;;;10.77;;
12042;SDS011;6082;49.306;12.862;2022-11-14T15:19:48;16.17;;;10.10;;
12042;SDS011;6082;49.306;12.862;2022-11-14T15:24:41;21.33;;;11.13;;
12042;SDS011;6082;49.306;12.862;2022-11-14T15:29:44;15.40;;;9.40;;
12042;SDS011;6082;49.306;12.862;2022-11-14T15:32:17;19.67;;;10.17;;
12042;SDS011;6082;49.306;12.862;2022-11-14T15:35:05;16.87;;;9.43;;
12042;SDS011;6082;49.306;12.862;2022-11-14T15:37:30;17.40;;;9.97;;
12042;SDS011;6082;49.306;12.862;2022-11-14T15:40:13;18.80;;;9.90;;
12042;SDS011;6082;49.306;12.862;2022-11-14T15:42:40;15.70;;;8.93;;
12042;SDS011;6082;49.306;12.862;2022-11-14T15:45:22;15.27;;;9.17;;
12042;SDS011;6082;49.306;12.862;2022-11-14T15:47:58;15.90;;;8.87;;
12042;SDS011;6082;49.306;12.862;2022-11-14T15:50:31;18.53;;;10.10;;
12042;SDS011;6082;49.306;12.862;2022-11-14T15:55:26;20.53;;;10.37;;
12042;SDS011;6082;49.306;12.862;2022-11-14T15:57:52;20.27;;;11.07;;
12042;SDS011;6082;49.306;12.862;2022-11-14T16:00:18;22.23;;;10.33;;
12042;SDS011;6082;49.306;12.862;2022-11-14T16:05:14;20.47;;;10.70;;
12042;SDS011;6082;49.306;12.862;2022-11-14T16:07:40;18.60;;;10.40;;
12042;SDS011;6082;49.306;12.862;2022-11-14T16:12:43;17.63;;;10.03;;
12042;SDS011;6082;49.306;12.862;2022-11-14T16:15:09;17.27;;;9.10;;
12042;SDS011;6082;49.306;12.862;2022-11-14T16:17:37;18.47;;;9.10;;
12042;SDS011;6082;49.306;12.862;2022-11-14T16:20:04;17.70;;;9.13;;
12042;SDS011;6082;49.306;12.862;2022-11-14T16:22:30;21.67;;;11.53;;
12042;SDS011;6082;49.306;12.862;2022-11-14T16:24:59;19.70;;;10.80;;
12042;SDS011;6082;49.306;12.862;2022-11-14T16:27:25;17.00;;;10.03;;
12042;SDS011;6082;49.306;12.862;2022-11-14T16:29:52;19.83;;;10.63;;
12042;SDS011;6082;49.306;12.862;2022-11-14T16:32:18;20.27;;;11.13;;
12042;SDS011;6082;49.306;12.862;2022-11-14T16:34:44;18.17;;;10.80;;
12042;SDS011;6082;49.306;12.862;2022-11-14T16:37:11;18.10;;;10.53;;
12042;SDS011;6082;49.306;12.862;2022-11-14T16:39:38;20.27;;;11.63;;
12042;SDS011;6082;49.306;12.862;2022-11-14T16:42:04;24.07;;;12.20;;
12042;SDS011;6082;49.306;12.862;2022-11-14T16:44:31;23.17;;;11.30;;
12042;SDS011;6082;49.306;12.862;2022-11-14T16:46:57;18.80;;;10.90;;